createdAt,value
2023-04-06T00:02:14.261Z,100543.53
2023-04-06T00:07:15.754Z,100538.00
2023-04-06T00:12:17.053Z,100540.84
2023-04-06T00:17:18.248Z,100538.16
2023-04-06T00:22:19.437Z,100538.28
2023-04-06T00:27:20.854Z,100533.09
2023-04-06T00:32:22.219Z,100531.28
2023-04-06T00:37:23.522Z,100524.78
2023-04-06T00:42:27.790Z,100527.13
2023-04-06T00:47:29.058Z,100521.66
2023-04-06T00:52:30.252Z,100520.34
2023-04-06T00:57:31.625Z,100509.88
2023-04-06T01:02:32.968Z,100499.72
2023-04-06T01:07:34.201Z,100494.56
2023-04-06T01:12:35.474Z,100490.06
2023-04-06T01:17:36.741Z,100484.22
2023-04-06T01:22:38.043Z,100475.56
2023-04-06T01:27:39.287Z,100473.66
2023-04-06T01:32:40.709Z,100461.75
2023-04-06T01:37:41.929Z,100467.69
2023-04-06T01:42:43.486Z,100452.84
2023-04-06T01:47:46.419Z,100450.91
2023-04-06T01:52:47.682Z,100458.38
2023-04-06T01:57:48.918Z,100453.09
2023-04-06T02:02:50.335Z,100454.56
2023-04-06T02:07:52.473Z,100449.63
2023-04-06T02:12:53.648Z,100446.69
2023-04-06T02:17:55.259Z,100445.34
2023-04-06T02:22:56.530Z,100445.56
2023-04-06T02:27:57.774Z,100448.41
2023-04-06T02:32:59.046Z,100447.25
2023-04-06T02:38:00.229Z,100437.22
2023-04-06T02:43:01.481Z,100440.25
2023-04-06T02:48:02.738Z,100432.28
2023-04-06T02:53:03.940Z,100431.97
2023-04-06T02:58:05.450Z,100422.63
2023-04-06T03:03:06.821Z,100427.22
2023-04-06T03:08:08.096Z,100422.53
2023-04-06T03:13:09.284Z,100427.72
2023-04-06T03:18:10.505Z,100426.22
2023-04-06T03:23:11.720Z,100425.78
2023-04-06T03:28:12.883Z,100422.88
2023-04-06T03:33:14.102Z,100422.06
2023-04-06T03:38:15.575Z,100425.56
2023-04-06T03:43:16.782Z,100426.13
2023-04-06T03:48:18.000Z,100427.00
2023-04-06T03:53:19.228Z,100421.41
2023-04-06T03:58:20.369Z,100432.53
2023-04-06T04:03:24.407Z,100421.84
2023-04-06T04:08:25.890Z,100429.16
2023-04-06T04:13:27.156Z,100427.63
2023-04-06T04:18:28.544Z,100427.94
2023-04-06T04:23:29.741Z,100424.31
2023-04-06T04:28:31.027Z,100428.72
2023-04-06T04:33:32.217Z,100425.03
2023-04-06T04:38:33.378Z,100425.13
2023-04-06T04:43:34.552Z,100426.03
2023-04-06T04:48:35.863Z,100426.03
2023-04-06T04:53:37.046Z,100429.50
2023-04-06T04:58:38.261Z,100434.34
2023-04-06T05:03:40.611Z,100429.06
2023-04-06T05:08:41.928Z,100430.88
2023-04-06T05:13:43.131Z,100430.75
2023-04-06T05:18:44.367Z,100432.53
2023-04-06T05:23:45.588Z,100433.66
2023-04-06T05:28:47.020Z,100432.72
2023-04-06T05:33:48.218Z,100433.19
2023-04-06T05:38:51.253Z,100431.25
2023-04-06T05:43:52.497Z,100431.69
2023-04-06T05:48:53.902Z,100435.16
2023-04-06T05:53:55.095Z,100434.69
2023-04-06T05:58:56.346Z,100436.56
2023-04-06T06:03:57.575Z,100426.53
2023-04-06T06:09:02.090Z,100438.91
2023-04-06T06:14:03.273Z,100438.44
2023-04-06T06:19:04.465Z,100430.47
2023-04-06T06:24:06.274Z,100428.38
2023-04-06T06:29:07.728Z,100429.88
2023-04-06T06:34:09.076Z,100436.56
2023-04-06T06:39:10.708Z,100429.88
2023-04-06T06:44:12.089Z,100421.91
2023-04-06T06:49:13.461Z,100428.59
2023-04-06T06:54:14.632Z,100432.03
2023-04-06T06:59:17.102Z,100438.19
2023-04-06T07:04:18.490Z,100433.97
2023-04-06T07:09:19.730Z,100419.78
2023-04-06T07:14:21.059Z,100412.63
2023-04-06T07:19:22.239Z,100406.09
2023-04-06T07:24:23.467Z,100410.28
2023-04-06T07:29:24.731Z,100416.25
2023-04-06T07:34:25.934Z,100422.94
2023-04-06T07:39:27.931Z,100417.19
2023-04-06T07:44:29.223Z,100408.28
2023-04-06T07:49:30.445Z,100405.03
2023-04-06T07:54:31.601Z,100414.97
2023-04-06T07:59:32.798Z,100411.56
2023-04-06T08:04:34.039Z,100408.19
2023-04-06T08:09:35.438Z,100405.03
2023-04-06T08:14:36.815Z,100399.97
2023-04-06T08:19:38.365Z,100396.72
2023-04-06T08:24:39.740Z,100404.28
2023-04-06T08:29:40.899Z,100401.31
2023-04-06T08:34:42.073Z,100398.56
2023-04-06T08:39:43.282Z,100398.75
2023-04-06T08:44:44.475Z,100397.91
2023-04-06T08:49:45.735Z,100392.81
2023-04-06T08:54:46.959Z,100390.97
2023-04-06T08:59:48.209Z,100390.69
2023-04-06T09:04:49.601Z,100391.97
2023-04-06T09:09:52.683Z,100391.06
2023-04-06T09:14:53.955Z,100389.34
2023-04-06T09:19:55.206Z,100386.13
2023-04-06T09:24:56.469Z,100379.00
2023-04-06T09:29:57.661Z,100374.47
2023-04-06T09:34:58.808Z,100367.47
2023-04-06T09:40:00.008Z,100359.72
2023-04-06T09:45:01.253Z,100359.56
2023-04-06T09:50:02.508Z,100367.78
2023-04-06T09:55:04.273Z,100364.09
2023-04-06T10:00:10.366Z,100356.31
2023-04-06T10:05:12.074Z,100346.66
2023-04-06T10:10:13.310Z,100350.88
2023-04-06T10:15:14.490Z,100349.75
2023-04-06T10:20:15.681Z,100306.38
2023-04-06T10:25:16.841Z,100345.38
2023-04-06T10:30:18.296Z,100338.63
2023-04-06T10:35:19.512Z,100343.91
2023-04-06T10:40:20.806Z,100337.00
2023-04-06T10:45:22.581Z,100331.00
2023-04-06T10:50:23.810Z,100334.75
2023-04-06T10:55:25.233Z,100325.13
2023-04-06T11:00:36.096Z,100328.81
2023-04-06T11:10:45.863Z,100308.53
2023-04-06T11:15:47.087Z,100316.38
2023-04-06T11:20:48.343Z,100317.69
2023-04-06T11:25:49.580Z,100312.50
2023-04-06T11:30:50.925Z,100304.06
2023-04-06T11:35:52.366Z,100301.88
2023-04-06T11:40:53.643Z,100304.44
2023-04-06T11:45:55.888Z,100283.94
2023-04-06T11:50:57.482Z,100288.06
2023-04-06T11:55:58.798Z,100291.84
2023-04-06T12:01:00.014Z,100294.03
2023-04-06T12:06:01.572Z,100294.66
2023-04-06T12:11:03.489Z,100293.09
2023-04-06T12:16:04.811Z,100289.34
2023-04-06T12:21:06.506Z,100287.31
2023-04-06T12:26:12.988Z,100292.41
2023-04-06T12:31:14.647Z,100284.94
2023-04-06T12:36:16.637Z,100287.81
2023-04-06T12:41:17.980Z,100294.22
2023-04-06T12:46:19.278Z,100290.50
2023-04-06T12:51:21.001Z,100280.81
2023-04-06T12:56:23.342Z,100277.75
2023-04-06T13:01:24.742Z,100268.63
2023-04-06T13:06:28.657Z,100270.66
2023-04-06T13:11:30.156Z,100262.69
2023-04-06T13:16:31.794Z,100277.50
2023-04-06T13:21:33.224Z,100261.69
2023-04-06T13:26:34.515Z,100282.66
2023-04-06T13:31:35.694Z,100266.03
2023-04-06T13:36:37.043Z,100273.34
2023-04-06T13:41:38.339Z,100276.25
2023-04-06T13:46:39.536Z,100277.97
2023-04-06T13:51:40.778Z,100280.56
2023-04-06T13:56:41.919Z,100278.88
2023-04-06T14:01:43.115Z,100291.81
2023-04-06T14:06:44.360Z,100285.25
2023-04-06T14:11:45.597Z,100293.34
2023-04-06T14:16:47.280Z,100292.44
2023-04-06T14:21:48.457Z,100283.09
2023-04-06T14:26:49.658Z,100296.81
2023-04-06T14:31:50.898Z,100299.00
2023-04-06T14:36:52.239Z,100292.13
2023-04-06T14:41:53.406Z,100301.16
2023-04-06T14:46:54.540Z,100290.84
2023-04-06T14:51:55.708Z,100291.03
2023-04-06T14:56:57.756Z,100296.56
2023-04-06T15:02:00.938Z,100302.13
2023-04-06T15:07:02.161Z,100297.06
2023-04-06T15:12:03.522Z,100288.97
2023-04-06T15:17:04.674Z,100287.81
2023-04-06T15:22:06.177Z,100290.50
2023-04-06T15:27:07.577Z,100285.78
2023-04-06T15:32:08.787Z,100279.22
2023-04-06T15:37:09.977Z,100287.88
2023-04-06T15:42:11.166Z,100290.94
2023-04-06T15:47:12.385Z,100292.88
2023-04-06T15:52:13.583Z,100287.19
2023-04-06T15:57:14.831Z,100282.44
2023-04-06T16:02:16.199Z,100294.38
2023-04-06T16:07:17.449Z,100295.34
2023-04-06T16:12:19.054Z,100300.41
2023-04-06T16:17:20.450Z,100301.00
2023-04-06T16:22:21.599Z,100306.03
2023-04-06T16:27:23.042Z,100301.16
2023-04-06T16:32:24.280Z,100306.44
2023-04-06T16:37:26.446Z,100297.31
2023-04-06T16:42:27.747Z,100304.72
2023-04-06T16:47:28.985Z,100303.19
2023-04-06T16:52:30.168Z,100296.47
2023-04-06T16:57:31.442Z,100300.47
2023-04-06T17:02:36.131Z,100299.75
2023-04-06T17:07:37.464Z,100295.59
2023-04-06T17:12:38.625Z,100292.50
2023-04-06T17:17:40.617Z,100284.16
2023-04-06T17:22:42.270Z,100286.78
2023-04-06T17:27:43.468Z,100288.91
2023-04-06T17:32:45.133Z,100287.09
2023-04-06T17:37:46.424Z,100280.84
2023-04-06T17:42:47.673Z,100276.41
2023-04-06T17:47:48.924Z,100280.91
2023-04-06T17:52:51.857Z,100274.97
2023-04-06T17:57:53.157Z,100275.53
2023-04-06T18:02:54.486Z,100281.28
2023-04-06T18:07:55.908Z,100279.22
2023-04-06T18:12:57.223Z,100279.47
2023-04-06T18:17:58.483Z,100275.63
2023-04-06T18:22:59.662Z,100277.19
2023-04-06T18:28:00.865Z,100270.94
2023-04-06T18:33:02.111Z,100272.50
2023-04-06T18:38:03.347Z,100269.91
2023-04-06T18:43:04.535Z,100266.28
2023-04-06T18:48:05.987Z,100267.31
2023-04-06T18:53:07.182Z,100274.66
2023-04-06T18:58:08.348Z,100269.97
2023-04-06T19:03:09.697Z,100276.53
2023-04-06T19:08:11.097Z,100267.38
2023-04-06T19:13:12.320Z,100262.94
2023-04-06T19:18:13.601Z,100269.50
2023-04-06T19:23:14.831Z,100262.19
2023-04-06T19:28:17.286Z,100257.50
2023-04-06T19:33:18.490Z,100252.03
2023-04-06T19:38:19.648Z,100249.66
2023-04-06T19:43:20.859Z,100243.44
2023-04-06T19:48:22.161Z,100244.97
2023-04-06T19:53:23.565Z,100245.53
2023-04-06T19:58:24.778Z,100231.94
2023-04-06T20:03:26.395Z,100239.50
2023-04-06T20:08:29.703Z,100229.59
2023-04-06T20:13:31.468Z,100230.38
2023-04-06T20:18:32.811Z,100225.69
2023-04-06T20:23:37.650Z,100209.00
2023-04-06T20:28:39.428Z,100225.69
2023-04-06T20:33:40.748Z,100222.03
2023-04-06T20:38:41.943Z,100214.22
2023-04-06T20:43:43.206Z,100207.41
2023-04-06T20:48:44.413Z,100206.38
2023-04-06T20:53:46.948Z,100214.47
2023-04-06T20:58:48.220Z,100202.19
2023-04-06T21:03:49.500Z,100195.38
2023-04-06T21:08:51.117Z,100183.38
2023-04-06T21:13:52.312Z,100177.38
2023-04-06T21:18:53.523Z,100181.28
2023-04-06T21:23:54.837Z,100176.84
2023-04-06T21:28:56.053Z,100168.75
2023-04-06T21:33:57.297Z,100175.28
2023-04-06T21:38:58.488Z,100167.19
2023-04-06T21:43:59.686Z,100165.34
2023-04-06T21:49:00.975Z,100166.09
2023-04-06T21:54:02.613Z,100169.22
2023-04-06T21:59:03.785Z,100165.56
2023-04-06T22:04:05.828Z,100155.13
2023-04-06T22:09:07.032Z,100149.63
2023-04-06T22:14:08.214Z,100141.81
2023-04-06T22:19:09.429Z,100146.75
2023-04-06T22:24:10.832Z,100143.09
2023-04-06T22:29:12.073Z,100143.63
2023-04-06T22:34:13.253Z,100141.78
2023-04-06T22:39:14.394Z,100139.94
2023-04-06T22:44:15.826Z,100143.63
2023-04-06T22:49:17.263Z,100132.09
2023-04-06T22:54:18.605Z,100128.72
2023-04-06T22:59:19.962Z,100124.28
2023-04-06T23:04:21.560Z,100122.97
2023-04-06T23:09:23.036Z,100128.44
2023-04-06T23:14:24.484Z,100116.94
2023-04-06T23:19:26.134Z,100114.59
2023-04-06T23:24:27.673Z,100114.31
2023-04-06T23:29:28.909Z,100115.88
2023-04-06T23:34:30.087Z,100116.63
2023-04-06T23:39:31.409Z,100115.34
2023-04-06T23:44:32.561Z,100117.94
2023-04-06T23:49:33.731Z,100111.69
2023-04-06T23:54:34.932Z,100109.34
2023-04-06T23:59:36.085Z,100099.66
